Аэропорт: Талаги. Архангельск

ICAO: ULAA

METAR:
2019/01/21 23:00
ULAA 212300Z 00000MPS 0100 0050E R08/0350N FZFG VV001 M19/M21 Q1003 R08/490341 NOSIG RMK QBB030 QFE752/1002
METAR:
2019/01/21 21:24
TAF TAF ULAA 211957Z 2121/2221 28003MPS 3100 -SN BR BKN011 
      TEMPO 2121/2201 VRB01MPS 0400 SN FZFG BKN002 
      TEMPO 2201/2205 27003MPS 2000 SN BR BKN006 
     FM220500 23003MPS 6000 BKN011 
      TEMPO 2205/2221 24003G08MPS 2000 SHSN BKN005 BKN011CB